createdAt,value
2019-02-14T00:00:08.884Z,18.37
2019-02-14T00:02:37.900Z,17.47
2019-02-14T00:05:06.881Z,17.43
2019-02-14T00:07:35.466Z,17.27
2019-02-14T00:10:06.504Z,17.70
2019-02-14T00:12:35.133Z,15.37
2019-02-14T00:15:04.827Z,20.70
2019-02-14T00:17:33.392Z,19.13
2019-02-14T00:20:01.990Z,19.13
2019-02-14T00:22:30.541Z,20.17
2019-02-14T00:24:59.100Z,19.03
2019-02-14T00:27:28.000Z,15.60
2019-02-14T00:30:15.899Z,17.90
2019-02-14T00:32:44.482Z,17.00
2019-02-14T00:35:13.115Z,16.80
2019-02-14T00:37:41.632Z,19.97
2019-02-14T00:40:10.427Z,18.47
2019-02-14T00:42:38.999Z,20.20
2019-02-14T00:45:08.135Z,18.90
2019-02-14T00:47:36.690Z,25.83
2019-02-14T00:50:07.385Z,22.03
2019-02-14T00:52:35.933Z,21.57
2019-02-14T00:55:06.137Z,18.20
2019-02-14T00:57:34.726Z,19.50
2019-02-14T01:00:05.965Z,17.43
2019-02-14T01:02:34.679Z,16.67
2019-02-14T01:05:03.495Z,17.90
2019-02-14T01:07:32.054Z,14.97
2019-02-14T01:10:00.633Z,15.27
2019-02-14T01:12:29.185Z,15.53
2019-02-14T01:14:57.801Z,19.77
2019-02-14T01:17:26.335Z,17.57
2019-02-14T01:19:54.795Z,17.33
2019-02-14T01:22:23.331Z,18.33
2019-02-14T01:24:51.892Z,16.23
2019-02-14T01:27:20.462Z,16.97
2019-02-14T01:29:48.958Z,15.67
2019-02-14T01:32:17.552Z,16.07
2019-02-14T01:34:46.105Z,16.70
2019-02-14T01:37:14.562Z,15.73
2019-02-14T01:39:43.099Z,17.13
2019-02-14T01:42:11.597Z,16.23
2019-02-14T01:44:40.176Z,15.00
2019-02-14T01:47:08.795Z,15.63
2019-02-14T01:49:37.296Z,16.13
2019-02-14T01:52:05.861Z,15.50
2019-02-14T01:54:34.724Z,16.57
2019-02-14T01:57:03.420Z,19.87
2019-02-14T01:59:31.990Z,16.97
2019-02-14T02:02:00.615Z,15.77
2019-02-14T02:04:29.197Z,14.73
2019-02-14T02:06:57.760Z,14.57
2019-02-14T02:09:26.438Z,15.67
2019-02-14T02:11:54.987Z,16.00
2019-02-14T02:14:23.543Z,16.63
2019-02-14T02:16:52.178Z,16.33
2019-02-14T02:19:20.620Z,15.43
2019-02-14T02:21:49.152Z,16.00
2019-02-14T02:24:17.709Z,14.73
2019-02-14T02:26:46.240Z,16.13
2019-02-14T02:29:14.784Z,15.63
2019-02-14T02:31:43.337Z,16.83
2019-02-14T02:34:11.910Z,16.27
2019-02-14T02:36:40.493Z,16.77
2019-02-14T02:39:09.058Z,16.93
2019-02-14T02:41:37.637Z,16.73
2019-02-14T02:44:06.192Z,15.60
2019-02-14T02:46:34.775Z,16.17
2019-02-14T02:49:03.350Z,16.03
2019-02-14T02:51:31.936Z,13.73
2019-02-14T02:54:00.502Z,15.77
2019-02-14T02:56:29.058Z,15.03
2019-02-14T02:58:57.638Z,15.60
2019-02-14T03:01:26.203Z,15.93
2019-02-14T03:03:54.783Z,15.77
2019-02-14T03:06:23.345Z,15.23
2019-02-14T03:08:51.840Z,16.33
2019-02-14T03:11:20.438Z,18.30
2019-02-14T03:13:49.006Z,19.70
2019-02-14T03:16:17.604Z,19.60
2019-02-14T03:18:46.161Z,19.50
2019-02-14T03:21:14.722Z,18.33
2019-02-14T03:23:43.306Z,18.97
2019-02-14T03:26:11.860Z,17.70
2019-02-14T03:28:40.444Z,22.53
2019-02-14T03:31:09.077Z,21.93
2019-02-14T03:33:37.635Z,19.73
2019-02-14T03:36:06.199Z,18.43
2019-02-14T03:38:34.778Z,17.87
2019-02-14T03:41:03.350Z,17.10
2019-02-14T03:43:32.353Z,16.87
2019-02-14T03:46:01.033Z,14.80
2019-02-14T03:48:29.598Z,15.03
2019-02-14T03:50:58.164Z,15.93
2019-02-14T03:53:26.738Z,14.87
2019-02-14T03:55:55.234Z,16.10
2019-02-14T03:58:23.884Z,17.33
2019-02-14T04:00:52.518Z,16.50
2019-02-14T04:03:21.059Z,19.07
2019-02-14T04:05:49.637Z,17.10
2019-02-14T04:08:18.197Z,16.83
2019-02-14T04:10:46.783Z,16.97
2019-02-14T04:13:15.601Z,18.03
2019-02-14T04:15:44.231Z,17.20
2019-02-14T04:18:13.193Z,18.17
2019-02-14T04:20:41.745Z,17.30
2019-02-14T04:23:10.332Z,17.27
2019-02-14T04:25:38.907Z,20.10
2019-02-14T04:28:07.472Z,17.70
2019-02-14T04:30:36.056Z,17.40
2019-02-14T04:33:04.687Z,16.60
2019-02-14T04:35:33.329Z,16.93
2019-02-14T04:38:01.886Z,17.17
2019-02-14T04:40:33.656Z,19.20
2019-02-14T04:43:00.696Z,17.77
2019-02-14T04:45:29.256Z,17.50
2019-02-14T04:47:57.841Z,17.00
2019-02-14T04:50:26.399Z,19.00
2019-02-14T04:52:54.982Z,17.77
2019-02-14T04:55:23.548Z,18.10
2019-02-14T04:57:52.106Z,17.63
2019-02-14T05:00:20.681Z,19.03
2019-02-14T05:02:49.247Z,18.37
2019-02-14T05:05:17.762Z,28.40
2019-02-14T05:07:46.241Z,21.93
2019-02-14T05:10:14.807Z,21.80
2019-02-14T05:12:43.382Z,19.60
2019-02-14T05:15:12.180Z,21.27
2019-02-14T05:17:40.782Z,22.10
2019-02-14T05:20:28.661Z,21.40
2019-02-14T05:22:57.248Z,21.00
2019-02-14T05:25:25.988Z,21.13
2019-02-14T05:27:54.577Z,21.67
2019-02-14T05:30:23.145Z,20.23
2019-02-14T05:32:51.785Z,22.47
2019-02-14T05:35:33.797Z,20.27
2019-02-14T05:38:02.383Z,22.37
2019-02-14T05:40:30.951Z,24.87
2019-02-14T05:42:59.842Z,23.20
2019-02-14T05:45:28.418Z,25.27
2019-02-14T05:47:57.004Z,23.07
2019-02-14T05:50:25.506Z,24.60
2019-02-14T05:52:54.373Z,25.00
2019-02-14T05:55:22.973Z,26.67
2019-02-14T05:57:51.450Z,31.73
2019-02-14T06:00:20.728Z,28.23
2019-02-14T06:02:49.373Z,24.30
2019-02-14T06:05:17.987Z,24.47
2019-02-14T06:07:46.525Z,27.70
2019-02-14T06:10:15.065Z,23.73
2019-02-14T06:12:44.555Z,22.03
2019-02-14T06:15:13.854Z,26.73
2019-02-14T06:17:42.462Z,28.23
2019-02-14T06:20:11.967Z,23.73
2019-02-14T06:22:59.980Z,24.97
2019-02-14T06:25:28.541Z,26.03
2019-02-14T06:27:57.411Z,24.23
2019-02-14T06:30:25.996Z,26.73
2019-02-14T06:32:57.527Z,28.03
2019-02-14T06:35:26.433Z,31.10
2019-02-14T06:37:55.011Z,26.67
2019-02-14T06:40:23.575Z,30.97
2019-02-14T06:42:52.186Z,32.90
2019-02-14T06:45:20.799Z,32.83
2019-02-14T06:47:49.654Z,31.07
2019-02-14T06:50:18.233Z,28.37
2019-02-14T06:52:46.808Z,27.53
2019-02-14T06:55:15.400Z,22.93
2019-02-14T06:57:43.959Z,23.87
2019-02-14T07:00:15.195Z,24.23
2019-02-14T07:02:43.871Z,24.40
2019-02-14T07:05:12.548Z,25.97
2019-02-14T07:07:41.180Z,26.57
2019-02-14T07:10:11.115Z,32.43
2019-02-14T07:12:39.778Z,32.13
2019-02-14T07:15:11.420Z,28.80
2019-02-14T07:17:40.059Z,30.97
2019-02-14T07:20:16.608Z,30.63
2019-02-14T07:22:45.244Z,28.93
2019-02-14T07:25:13.897Z,29.13
2019-02-14T07:27:42.460Z,25.23
2019-02-14T07:30:19.846Z,24.73
2019-02-14T07:32:48.407Z,26.50
2019-02-14T07:35:17.363Z,26.87
2019-02-14T07:37:45.953Z,26.60
2019-02-14T07:40:15.147Z,29.73
2019-02-14T07:42:43.844Z,26.70
2019-02-14T07:45:15.212Z,30.50
2019-02-14T07:47:43.787Z,29.27
2019-02-14T07:50:13.618Z,28.40
2019-02-14T07:52:42.325Z,26.83
2019-02-14T07:55:14.581Z,27.93
2019-02-14T07:57:43.155Z,26.27
2019-02-14T08:00:17.325Z,29.57
2019-02-14T08:02:45.890Z,31.13
2019-02-14T08:05:14.464Z,34.47
2019-02-14T08:07:43.040Z,31.60
2019-02-14T08:10:14.506Z,23.90
2019-02-14T08:12:43.025Z,25.40
2019-02-14T08:15:13.440Z,22.73
2019-02-14T08:17:42.104Z,22.10
2019-02-14T08:20:19.148Z,19.63
2019-02-14T08:22:47.715Z,19.30
2019-02-14T08:25:16.382Z,17.00
2019-02-14T08:27:44.961Z,17.40
2019-02-14T08:30:19.047Z,17.90
2019-02-14T08:32:47.639Z,17.87
2019-02-14T08:35:16.257Z,18.20
2019-02-14T08:37:46.036Z,18.53
2019-02-14T08:40:23.668Z,18.70
2019-02-14T08:42:52.262Z,18.10
2019-02-14T08:45:20.888Z,18.17
2019-02-14T08:47:49.452Z,17.63
2019-02-14T08:50:18.112Z,16.33
2019-02-14T08:52:46.742Z,15.53
2019-02-14T08:55:15.311Z,17.60
2019-02-14T08:57:43.906Z,14.83
2019-02-14T09:00:17.165Z,16.23
2019-02-14T09:02:45.757Z,15.87
2019-02-14T09:05:14.472Z,16.40
2019-02-14T09:07:43.056Z,17.27
2019-02-14T09:10:16.184Z,18.27
2019-02-14T09:12:44.742Z,17.37
2019-02-14T09:15:14.514Z,15.83
2019-02-14T09:17:43.111Z,14.77
2019-02-14T09:20:14.411Z,15.67
2019-02-14T09:22:42.970Z,14.50
2019-02-14T09:25:11.682Z,14.53
2019-02-14T09:27:40.287Z,14.20
2019-02-14T09:30:13.716Z,13.90
2019-02-14T09:32:42.442Z,14.17
2019-02-14T09:35:11.237Z,12.97
2019-02-14T09:37:39.789Z,12.57
2019-02-14T09:40:13.422Z,12.47
2019-02-14T09:42:42.123Z,12.70
2019-02-14T09:45:14.401Z,11.63
2019-02-14T09:47:43.036Z,11.37
2019-02-14T09:50:13.363Z,11.70
2019-02-14T09:52:42.306Z,11.50
2019-02-14T09:55:14.490Z,12.45
2019-02-14T09:57:43.066Z,12.70
2019-02-14T10:00:14.243Z,12.50
2019-02-14T10:02:42.947Z,11.70
2019-02-14T10:05:11.655Z,11.60
2019-02-14T10:07:40.181Z,12.28
2019-02-14T10:10:12.260Z,12.47
2019-02-14T10:12:40.806Z,11.60
2019-02-14T10:15:10.483Z,11.68
2019-02-14T10:17:39.028Z,11.23
2019-02-14T10:20:18.266Z,11.35
2019-02-14T10:22:46.843Z,10.13
2019-02-14T10:25:15.561Z,10.57
2019-02-14T10:27:44.180Z,10.70
2019-02-14T10:30:17.859Z,11.20
2019-02-14T10:32:46.557Z,11.20
2019-02-14T10:35:15.186Z,10.57
2019-02-14T10:37:44.079Z,11.43
2019-02-14T10:40:14.695Z,10.80
2019-02-14T10:42:43.175Z,10.57
2019-02-14T10:45:20.430Z,10.20
2019-02-14T10:47:49.053Z,9.47
2019-02-14T10:50:17.674Z,10.23
2019-02-14T10:52:46.795Z,9.13
2019-02-14T10:55:16.077Z,9.57
2019-02-14T10:57:44.783Z,9.30
2019-02-14T11:00:26.514Z,10.67
2019-02-14T11:02:55.171Z,10.13
2019-02-14T11:05:23.873Z,10.07
2019-02-14T11:07:52.520Z,11.13
2019-02-14T11:10:21.109Z,10.97
2019-02-14T11:12:49.680Z,10.70
2019-02-14T11:15:23.656Z,11.13
2019-02-14T11:17:52.129Z,10.50
2019-02-14T11:20:20.659Z,10.67
2019-02-14T11:22:49.534Z,10.63
2019-02-14T11:25:30.351Z,10.40
2019-02-14T11:27:58.943Z,10.40
2019-02-14T11:30:27.500Z,10.83
2019-02-14T11:32:56.088Z,12.07
2019-02-14T11:35:24.735Z,10.37
2019-02-14T11:37:53.313Z,11.20
2019-02-14T11:40:21.878Z,10.47
2019-02-14T11:42:50.424Z,11.23
2019-02-14T11:45:38.287Z,11.47
2019-02-14T11:48:06.844Z,10.93
2019-02-14T11:50:35.341Z,11.23
2019-02-14T11:53:03.983Z,11.23
2019-02-14T11:55:32.535Z,11.87
2019-02-14T11:58:01.121Z,11.77
2019-02-14T12:00:29.676Z,11.60
2019-02-14T12:02:58.120Z,11.37
2019-02-14T12:05:26.682Z,10.20
2019-02-14T12:07:55.240Z,11.33
2019-02-14T12:10:24.089Z,11.30
2019-02-14T12:12:52.650Z,10.63
2019-02-14T12:15:23.233Z,11.03
2019-02-14T12:17:51.533Z,9.67
2019-02-14T12:20:20.075Z,10.03
2019-02-14T12:22:48.597Z,10.10
2019-02-14T12:25:25.381Z,9.93
2019-02-14T12:27:53.964Z,9.93
2019-02-14T12:30:22.659Z,10.07
2019-02-14T12:32:51.236Z,9.50
2019-02-14T12:35:19.882Z,9.53
2019-02-14T12:37:48.438Z,9.73
2019-02-14T12:40:17.092Z,9.40
2019-02-14T12:42:45.723Z,8.60
2019-02-14T12:45:26.196Z,9.07
2019-02-14T12:47:55.267Z,9.03
2019-02-14T12:50:23.819Z,8.07
2019-02-14T12:52:52.331Z,9.40
2019-02-14T12:55:20.807Z,8.47
2019-02-14T12:57:49.362Z,8.90
2019-02-14T13:00:24.656Z,8.83
2019-02-14T13:02:53.332Z,8.47
2019-02-14T13:05:22.116Z,8.33
2019-02-14T13:07:50.673Z,7.80
2019-02-14T13:10:19.480Z,8.10
2019-02-14T13:12:48.156Z,8.30
2019-02-14T13:15:24.997Z,8.53
2019-02-14T13:17:53.611Z,8.40
2019-02-14T13:20:22.237Z,9.77
2019-02-14T13:22:50.917Z,9.67
2019-02-14T13:25:19.450Z,9.93
2019-02-14T13:27:47.930Z,8.53
2019-02-14T13:30:22.480Z,8.27
2019-02-14T13:32:51.027Z,8.80
2019-02-14T13:35:20.056Z,9.27
2019-02-14T13:37:48.682Z,9.10
2019-02-14T13:40:17.296Z,8.83
2019-02-14T13:42:45.895Z,8.67
2019-02-14T13:45:17.630Z,9.40
2019-02-14T13:47:46.151Z,9.37
2019-02-14T13:50:16.047Z,9.00
2019-02-14T13:52:44.797Z,9.37
2019-02-14T13:55:13.635Z,8.90
2019-02-14T13:57:42.224Z,9.10
2019-02-14T14:00:25.766Z,8.90
2019-02-14T14:02:54.298Z,8.13
2019-02-14T14:05:22.880Z,8.30
2019-02-14T14:07:51.365Z,8.87
2019-02-14T14:10:20.057Z,8.33
2019-02-14T14:12:48.704Z,9.07
2019-02-14T14:15:17.327Z,8.60
2019-02-14T14:17:46.252Z,8.50
2019-02-14T14:20:14.823Z,9.33
2019-02-14T14:22:43.376Z,8.43
2019-02-14T14:25:12.579Z,8.73
2019-02-14T14:27:41.616Z,9.00
2019-02-14T14:30:14.359Z,8.50
2019-02-14T14:32:42.917Z,8.27
2019-02-14T14:35:12.328Z,8.40
2019-02-14T14:37:41.073Z,7.93
2019-02-14T14:40:17.437Z,7.93
2019-02-14T14:42:50.565Z,8.47
2019-02-14T14:45:21.501Z,7.93
2019-02-14T14:47:50.047Z,8.90
2019-02-14T14:50:18.551Z,7.33
2019-02-14T14:52:47.104Z,8.53
2019-02-14T14:55:15.688Z,7.47
2019-02-14T14:57:44.257Z,8.10
2019-02-14T15:00:13.586Z,7.20
2019-02-14T15:02:42.195Z,7.77
2019-02-14T15:05:10.817Z,8.03
2019-02-14T15:07:39.409Z,7.30
2019-02-14T15:10:08.563Z,8.07
2019-02-14T15:12:37.145Z,8.17
2019-02-14T15:15:07.452Z,7.80
2019-02-14T15:17:35.927Z,8.27
2019-02-14T15:20:06.987Z,8.40
2019-02-14T15:22:35.553Z,7.97
2019-02-14T15:25:04.264Z,8.97
2019-02-14T15:27:32.766Z,8.80
2019-02-14T15:30:01.294Z,9.43
2019-02-14T15:32:30.023Z,9.53
2019-02-14T15:34:58.591Z,9.97
2019-02-14T15:37:27.541Z,9.33
2019-02-14T15:39:56.107Z,10.20
2019-02-14T15:42:25.020Z,9.90
2019-02-14T15:44:53.665Z,8.87
2019-02-14T15:47:22.232Z,9.17
2019-02-14T15:49:50.827Z,8.57
2019-02-14T15:52:19.384Z,9.10
2019-02-14T15:54:47.950Z,8.70
2019-02-14T15:57:18.259Z,9.93
2019-02-14T15:59:46.819Z,9.83
2019-02-14T16:02:15.466Z,9.43
2019-02-14T16:04:45.887Z,9.30
2019-02-14T16:07:15.420Z,9.53
2019-02-14T16:09:44.485Z,8.20
2019-02-14T16:12:13.091Z,8.67
2019-02-14T16:14:42.771Z,8.47
2019-02-14T16:17:13.723Z,8.30
2019-02-14T16:19:42.170Z,8.30
2019-02-14T16:22:10.699Z,8.47
2019-02-14T16:24:41.255Z,9.20
2019-02-14T16:27:09.528Z,8.37
2019-02-14T16:29:38.078Z,7.77
2019-02-14T16:32:06.607Z,7.83
2019-02-14T16:34:35.152Z,8.20
2019-02-14T16:37:04.613Z,9.50
2019-02-14T16:39:33.279Z,7.17
2019-02-14T16:42:01.790Z,8.50
2019-02-14T16:44:30.387Z,8.23
2019-02-14T16:46:59.286Z,8.67
2019-02-14T16:49:27.837Z,9.80
2019-02-14T16:51:56.400Z,8.30
2019-02-14T16:54:24.901Z,8.67
2019-02-14T16:56:53.490Z,8.07
2019-02-14T16:59:22.058Z,9.33
2019-02-14T17:01:50.695Z,11.50
2019-02-14T17:04:19.264Z,11.57
2019-02-14T17:07:07.187Z,11.20
2019-02-14T17:09:36.053Z,11.27
2019-02-14T17:12:04.591Z,12.40
2019-02-14T17:14:33.090Z,10.37
2019-02-14T17:17:01.998Z,12.07
2019-02-14T17:19:30.590Z,10.33
2019-02-14T17:21:59.154Z,12.37
2019-02-14T17:24:27.708Z,12.10
2019-02-14T17:26:56.283Z,12.23
2019-02-14T17:29:24.830Z,10.53
2019-02-14T17:31:53.460Z,10.47
2019-02-14T17:34:22.034Z,10.50
2019-02-14T17:36:50.579Z,9.63
2019-02-14T17:39:19.409Z,12.20
2019-02-14T17:41:47.894Z,13.10
2019-02-14T17:44:16.523Z,14.27
2019-02-14T17:46:48.777Z,13.47
2019-02-14T17:49:17.362Z,14.03
2019-02-14T17:51:46.310Z,16.50
2019-02-14T17:54:14.796Z,16.17
2019-02-14T17:56:43.460Z,17.13
2019-02-14T17:59:12.018Z,17.13
2019-02-14T18:01:40.575Z,16.23
2019-02-14T18:04:09.155Z,15.60
2019-02-14T18:06:37.789Z,16.80
2019-02-14T18:09:06.730Z,16.83
2019-02-14T18:11:35.434Z,18.60
2019-02-14T18:14:04.000Z,16.07
2019-02-14T18:16:32.595Z,16.23
2019-02-14T18:19:01.168Z,16.63
2019-02-14T18:21:29.759Z,15.83
2019-02-14T18:23:58.313Z,16.50
2019-02-14T18:26:26.836Z,17.57
2019-02-14T18:28:55.471Z,18.37
2019-02-14T18:31:24.032Z,20.57
2019-02-14T18:33:52.979Z,20.33
2019-02-14T18:36:21.540Z,19.37
2019-02-14T18:38:50.130Z,19.60
2019-02-14T18:41:18.683Z,18.57
2019-02-14T18:43:47.215Z,18.90
2019-02-14T18:46:15.714Z,22.63
2019-02-14T18:48:44.232Z,20.50
2019-02-14T18:51:12.943Z,22.47
2019-02-14T18:53:41.508Z,21.33
2019-02-14T18:56:10.078Z,18.13
2019-02-14T18:58:38.637Z,19.30
2019-02-14T19:01:07.191Z,19.67
2019-02-14T19:03:35.772Z,19.53
2019-02-14T19:06:04.359Z,20.70
2019-02-14T19:08:32.899Z,19.20
2019-02-14T19:11:01.494Z,19.20
2019-02-14T19:13:30.100Z,18.87
2019-02-14T19:15:58.684Z,17.20
2019-02-14T19:18:27.245Z,21.60
2019-02-14T19:20:55.962Z,18.17
2019-02-14T19:23:24.601Z,17.63
2019-02-14T19:25:53.190Z,19.87
2019-02-14T19:28:22.052Z,20.20
2019-02-14T19:30:50.621Z,20.97
2019-02-14T19:33:19.172Z,18.00
2019-02-14T19:35:47.752Z,20.63
2019-02-14T19:38:16.291Z,19.77
2019-02-14T19:40:45.257Z,21.17
2019-02-14T19:43:13.967Z,20.83
2019-02-14T19:45:42.502Z,20.20
2019-02-14T19:48:11.088Z,20.50
2019-02-14T19:50:39.962Z,20.50
2019-02-14T19:53:08.458Z,20.93
2019-02-14T19:55:36.998Z,20.80
2019-02-14T19:58:05.485Z,21.30
2019-02-14T20:00:34.087Z,20.37
2019-02-14T20:03:02.635Z,21.07
2019-02-14T20:05:31.343Z,19.67
2019-02-14T20:07:59.970Z,19.17
2019-02-14T20:10:28.845Z,21.20
2019-02-14T20:12:57.387Z,20.63
2019-02-14T20:15:25.935Z,22.20
2019-02-14T20:17:54.516Z,22.07
2019-02-14T20:20:23.433Z,21.73
2019-02-14T20:22:52.064Z,22.83
2019-02-14T20:25:25.924Z,23.50
2019-02-14T20:27:54.573Z,22.17
2019-02-14T20:30:23.215Z,23.70
2019-02-14T20:32:52.170Z,22.07
2019-02-14T20:35:20.739Z,20.90
2019-02-14T20:37:49.310Z,22.60
2019-02-14T20:40:17.891Z,23.17
2019-02-14T20:42:46.459Z,21.83
2019-02-14T20:45:15.563Z,20.57
2019-02-14T20:47:44.161Z,20.77
2019-02-14T20:50:14.437Z,20.70
2019-02-14T20:52:43.486Z,19.40
2019-02-14T20:55:15.264Z,22.93
2019-02-14T20:57:44.626Z,20.47
2019-02-14T21:00:15.093Z,23.77
2019-02-14T21:02:43.791Z,20.43
2019-02-14T21:05:12.541Z,19.77
2019-02-14T21:07:41.175Z,18.07
2019-02-14T21:10:09.865Z,18.57
2019-02-14T21:12:38.588Z,19.87
2019-02-14T21:15:09.523Z,20.43
2019-02-14T21:17:38.080Z,20.97
2019-02-14T21:20:09.746Z,21.17
2019-02-14T21:22:38.749Z,20.53
2019-02-14T21:25:08.673Z,25.37
2019-02-14T21:27:37.185Z,23.53
2019-02-14T21:30:09.615Z,23.20
2019-02-14T21:32:38.262Z,19.67
2019-02-14T21:35:07.593Z,18.23
2019-02-14T21:37:36.312Z,21.97
2019-02-14T21:40:10.859Z,19.90
2019-02-14T21:42:39.463Z,20.27
2019-02-14T21:45:11.396Z,19.30
2019-02-14T21:47:40.023Z,20.63
2019-02-14T21:50:10.723Z,22.10
2019-02-14T21:52:39.390Z,23.10
2019-02-14T21:55:12.984Z,22.00
2019-02-14T21:57:41.917Z,23.00
2019-02-14T22:00:14.855Z,21.33
2019-02-14T22:02:43.854Z,26.23
2019-02-14T22:05:12.456Z,30.33
2019-02-14T22:07:41.019Z,26.80
2019-02-14T22:10:11.683Z,25.97
2019-02-14T22:12:42.328Z,26.30
2019-02-14T22:15:16.178Z,23.57
2019-02-14T22:17:44.935Z,25.67
2019-02-14T22:20:13.917Z,23.00
2019-02-14T22:22:42.444Z,24.97
2019-02-14T22:25:11.556Z,26.77
2019-02-14T22:27:40.165Z,28.03
2019-02-14T22:30:18.291Z,25.17
2019-02-14T22:32:46.978Z,26.00
2019-02-14T22:35:15.614Z,25.17
2019-02-14T22:37:44.164Z,23.73
2019-02-14T22:40:13.792Z,24.00
2019-02-14T22:42:47.081Z,26.23
2019-02-14T22:45:14.249Z,29.47
2019-02-14T22:47:44.060Z,24.57
2019-02-14T22:50:13.569Z,20.93
2019-02-14T22:52:42.049Z,21.33
2019-02-14T22:55:11.976Z,25.80
2019-02-14T22:57:40.584Z,25.87
2019-02-14T23:00:14.974Z,23.47
2019-02-14T23:02:43.616Z,25.40
2019-02-14T23:05:12.163Z,25.67
2019-02-14T23:07:40.881Z,24.50
2019-02-14T23:10:09.624Z,27.43
2019-02-14T23:12:38.277Z,24.70
2019-02-14T23:15:07.962Z,25.30
2019-02-14T23:17:36.510Z,24.70
2019-02-14T23:20:06.515Z,26.17
2019-02-14T23:22:35.094Z,24.47
2019-02-14T23:25:04.557Z,27.43
2019-02-14T23:27:33.115Z,29.00
2019-02-14T23:30:01.651Z,28.00
2019-02-14T23:32:30.304Z,27.00
2019-02-14T23:34:58.879Z,27.67
2019-02-14T23:37:27.425Z,26.17
2019-02-14T23:39:55.965Z,26.77
2019-02-14T23:42:25.024Z,35.10
2019-02-14T23:44:53.576Z,28.30
2019-02-14T23:47:22.128Z,29.10
2019-02-14T23:49:50.724Z,29.70
2019-02-14T23:52:19.346Z,30.77
2019-02-14T23:54:47.897Z,27.97
2019-02-14T23:57:16.469Z,29.93
2019-02-14T23:59:45.091Z,26.43
